• Join FlightAware (Why Join?)
  • Login
  • US Flag 
03:14PM EDT


 

Airport Tracker/Info


-or-


 

Live Flight TrackerFlight Track Log ✈ EJA727 ✈ 08-May-2013 ✈ KMSP - KCMA

Flight Track Log - Related Links

Times and Time Zones

All times are in EDT time to prevent confusion due to time zone crossing. See the EJA727 flight status page for this flight to view local times or setup timezone preferences in your user account.

Time Position Orientation Groundspeed Altitude Reporting Facility
EDT Latitude Longitude Course Direction KTS MPH feet Rate Location/Type
08:08AM 44.9000 -93.2833 265° West 210 242 3,700  Level Minneapolis TRACON
08:08AM 44.8994 -93.2928 265° West 208 239 4,100 3,360 Climbing Minneapolis Center
08:09AM 44.8681 -93.4011 248° West 277 319 8,300 4,020 Climbing Minneapolis Center
08:10AM 44.8125 -93.4881 228° Southwest 302 348 12,400 3,360 Climbing Minneapolis Center
08:11AM 44.7514 -93.5825 228° Southwest 333 383 15,300 2,700 Climbing Minneapolis Center
08:12AM 44.6828 -93.6897 228° Southwest 370 426 18,000 2,580 Climbing Minneapolis Center
08:13AM 44.6131 -93.7978 228° Southwest 376 433 20,700 2,340 Climbing Minneapolis Center
08:14AM 44.5444 -93.9172 231° Southwest 390 449 22,900 1,260 Climbing Minneapolis Center
08:15AM 44.4736 -94.0522 234° Southwest 429 494 23,300 1,380 Climbing Minneapolis Center
08:16AM 44.3883 -94.2147 234° Southwest 435 501 25,800 2,160 Climbing Minneapolis Center
08:17AM 44.3183 -94.3469 234° Southwest 427 491 27,800 1,800 Climbing Minneapolis Center
08:18AM 44.2503 -94.4758 234° Southwest 417 480 29,600 1,320 Climbing Minneapolis Center
08:19AM 44.1797 -94.6069 233° Southwest 421 484 30,600 960 Climbing Minneapolis Center
08:20AM 44.1081 -94.7381 233° Southwest 429 494 31,600 960 Climbing Minneapolis Center
08:21AM 44.0353 -94.8744 233° Southwest 435 501 32,600 1,020 Climbing Minneapolis Center
08:22AM 43.9472 -95.0347 233° Southwest 436 502 33,800 1,020 Climbing Minneapolis Center
08:24AM 43.8756 -95.1672 233° Southwest 433 498 34,800 960 Climbing Minneapolis Center
08:25AM 43.8050 -95.2956 233° Southwest 424 488 35,800 600 Climbing Minneapolis Center
08:26AM 43.7494 -95.3964 233° Southwest 417 480 36,100 540 Climbing Minneapolis Center
08:27AM 43.6653 -95.5481 233° Southwest 414 476 37,000 720 Climbing Minneapolis Center
08:28AM 43.6086 -95.6900 241° Southwest 421 484 37,600 480 Climbing Minneapolis Center
08:29AM 43.5556 -95.8353 243° Southwest 424 488 38,000 180 Climbing Minneapolis Center
08:30AM 43.5000 -95.9878 243° Southwest 441 507 38,000  Level Minneapolis Center
08:31AM 43.4431 -96.1442 243° Southwest 455 524 38,000  Level Minneapolis Center
08:32AM 43.3864 -96.2997 243° Southwest 455 524 38,000  Level Minneapolis Center
08:33AM 43.3183 -96.4844 243° Southwest 452 520 38,000  Level Minneapolis Center
08:34AM 43.2614 -96.6386 243° Southwest 452 520 38,000  Level Minneapolis Center
08:35AM 43.2039 -96.7925 243° Southwest 453 521 38,000  Level Minneapolis Center
08:36AM 43.1464 -96.9444 243° Southwest 451 519 38,000  Level Minneapolis Center
08:37AM 43.0900 -97.0944 243° Southwest 445 512 38,000  Level Minneapolis Center
08:38AM 43.0317 -97.2469 242° Southwest 451 519 38,000  Level Minneapolis Center
08:39AM 42.9750 -97.3992 243° Southwest 451 519 38,000  Level Minneapolis Center
08:40AM 42.9050 -97.5800 242° Southwest 451 519 38,000  Level Minneapolis Center
08:41AM 42.8347 -97.7608 242° Southwest 451 519 38,000  Level Minneapolis Center
08:42AM 42.7758 -97.9125 242° Southwest 453 521 38,000  Level Minneapolis Center
08:43AM 42.7167 -98.0619 242° Southwest 451 519 38,000  Level Minneapolis Center
08:44AM 42.6564 -98.2167 242° Southwest 449 517 38,000  Level Minneapolis Center
08:45AM 42.5986 -98.3658 242° Southwest 447 514 38,000  Level Minneapolis Center
08:46AM 42.5394 -98.5136 242° Southwest 447 514 38,000  Level Minneapolis Center
08:47AM 42.4822 -98.6594 242° Southwest 441 507 38,000  Level Minneapolis Center
08:49AM 42.4486 -98.8161 254° West 438 504 38,000  Level Minneapolis Center
08:50AM 42.4142 -99.0047 256° West 432 497 38,000  Level Minneapolis Center
08:51AM 42.3797 -99.1969 256° West 437 503 38,000  Level Minneapolis Center
08:52AM 42.3497 -99.3572 256° West 440 506 38,000  Level Minneapolis Center
08:52AM 42.3328 -99.4519 256° West 438 504 38,000  Level Denver Center
08:53AM 42.2964 -99.6464 256° West 445 512 38,000  Level Denver Center
08:54AM 42.2675 -99.7964 255° West 442 509 38,000  Level Denver Center
08:55AM 42.2392 -99.9511 256° West 445 512 38,000  Level Denver Center
08:56AM 42.2042 -100.1306 255° West 445 512 38,000  Level Denver Center
08:57AM 42.1756 -100.2853 256° West 445 512 38,000  Level Denver Center
08:58AM 42.1400 -100.4633 255° West 443 510 38,000  Level Denver Center
09:00AM 42.1097 -100.6161 255° West 442 509 38,000  Level Denver Center
09:01AM 42.0706 -100.8258 256° West 450 518 38,000  Level Denver Center
09:02AM 42.0383 -100.9833 255° West 456 525 38,000  Level Denver Center
09:03AM 42.0083 -101.1389 255° West 452 520 38,000  Level Denver Center
09:04AM 41.9714 -101.3233 255° West 457 526 38,000  Level Denver Center
09:05AM 41.9383 -101.4814 254° West 459 528 38,000  Level Denver Center
09:06AM 41.9058 -101.6417 255° West 465 535 38,000  Level Denver Center
09:07AM 41.8667 -101.8294 254° West 469 540 38,000  Level Denver Center
09:08AM 41.8331 -101.9906 254° West 470 541 38,000  Level Denver Center
09:09AM 41.7936 -102.1783 254° West 471 542 38,000  Level Denver Center
09:10AM 41.7572 -102.3475 254° West 468 539 38,000  Level Denver Center
09:11AM 41.7247 -102.5003 254° West 473 544 38,000  Level Denver Center
09:12AM 41.6872 -102.6731 254° West 475 547 38,000  Level Denver Center
09:13AM 41.6464 -102.8631 254° West 476 548 38,000  Level Denver Center
09:14AM 41.6097 -103.0253 253° West 475 547 38,000  Level Denver Center
09:15AM 41.5744 -103.1897 254° West 479 551 38,000  Level Denver Center
09:16AM 41.5319 -103.3783 253° West 475 547 38,000  Level Denver Center
09:17AM 41.4956 -103.5414 253° West 478 550 38,000  Level Denver Center
09:18AM 41.4469 -103.7572 253° West 476 548 38,000  Level Denver Center
09:19AM 41.4103 -103.9189 253° West 477 549 38,000  Level Denver Center
09:20AM 41.3728 -104.0817 253° West 478 550 38,000  Level Denver Center
09:21AM 41.3292 -104.2700 253° West 476 548 38,000  Level Denver Center
09:22AM 41.2911 -104.4297 252° West 473 544 38,000  Level Denver Center
09:23AM 41.2528 -104.5933 253° West 480 552 38,000  Level Denver Center
09:24AM 41.2078 -104.7808 252° West 478 550 38,000  Level Denver Center
09:25AM 41.1558 -104.9333 246° West 474 545 38,000  Level Denver Center
09:26AM 41.1119 -105.0583 245° Southwest 468 539 38,000  Level Denver Center
09:27AM 41.0431 -105.2567 245° Southwest 466 536 38,000  Level Denver Center
09:28AM 40.9864 -105.4181 245° Southwest 467 537 38,000  Level Denver Center
09:29AM 40.9317 -105.5750 245° Southwest 467 537 38,000  Level Denver Center
09:30AM 40.8847 -105.7047 244° Southwest 468 539 38,000  Level Denver Center
09:31AM 40.8200 -105.8881 245° Southwest 466 536 38,000  Level Denver Center
09:33AM 40.7553 -106.0711 245° Southwest 470 541 38,000  Level Denver Center
09:34AM 40.6994 -106.2244 244° Southwest 469 540 38,000  Level Denver Center
09:35AM 40.6367 -106.3989 245° Southwest 472 543 38,000  Level Denver Center
09:36AM 40.5864 -106.5342 244° Southwest 470 541 38,000  Level Denver Center
09:37AM 40.5308 -106.6894 245° Southwest 470 541 38,000  Level Denver Center
09:38AM 40.4642 -106.8675 244° Southwest 470 541 38,000  Level Denver Center
09:39AM 40.4103 -107.0147 244° Southwest 468 539 38,000  Level Denver Center
09:40AM 40.3539 -107.1644 244° Southwest 476 548 38,000  Level Denver Center
09:41AM 40.2908 -107.3372 244° Southwest 472 543 38,000  Level Denver Center
09:42AM 40.2339 -107.4861 243° Southwest 476 548 38,000  Level Denver Center
09:43AM 40.1781 -107.6333 244° Southwest 475 547 38,000  Level Denver Center
09:44AM 40.1128 -107.8081 244° Southwest 477 549 38,000  Level Denver Center
09:45AM 40.0433 -107.9767 242° Southwest 473 544 38,000  Level Denver Center
09:46AM 39.9611 -108.1353 236° Southwest 472 543 38,000  Level Denver Center
09:47AM 39.8892 -108.2725 236° Southwest 481 554 38,000  Level Denver Center
09:48AM 39.7978 -108.4519 237° Southwest 455 524 38,000  Level Denver Center
09:49AM 39.7292 -108.5864 236° Southwest 464 534 38,000  Level Denver Center
09:50AM 39.6500 -108.7386 236° Southwest 476 548 38,000  Level Denver Center
09:51AM 39.5814 -108.8683 236° Southwest 471 542 38,000  Level Denver Center
09:52AM 39.4997 -109.0242 236° Southwest 469 540 38,000  Level Denver Center
09:53AM 39.4292 -109.1583 236° Southwest 471 542 38,000  Level Denver Center
09:54AM 39.3472 -109.3142 236° Southwest 469 540 38,000  Level Denver Center
09:55AM 39.3119 -109.3814 236° Southwest 470 541 38,000  Level Salt Lake Center
09:56AM 39.2414 -109.5158 236° Southwest 472 543 38,000  Level Salt Lake Center
09:57AM 39.1578 -109.6711 235° Southwest 472 543 38,000  Level Salt Lake Center
09:57AM 39.1225 -109.7375 236° Southwest 471 542 38,000  Level Denver Center
09:58AM 39.0531 -109.8703 236° Southwest 468 539 38,000  Level Denver Center
09:59AM 39.0050 -109.9583 235° Southwest 469 540 38,000  Level Salt Lake Center
10:00AM 38.9336 -110.0897 235° Southwest 469 540 38,000  Level Salt Lake Center
10:01AM 38.8983 -110.1558 236° Southwest 469 540 38,000  Level Denver Center
10:02AM 38.8275 -110.2886 236° Southwest 471 542 38,000  Level Denver Center
10:03AM 38.7403 -110.4381 233° Southwest 469 540 38,000  Level Denver Center
10:03AM 38.7056 -110.5072 237° Southwest 475 547 38,000  Level Salt Lake Center
10:04AM 38.6217 -110.6597 235° Southwest 470 541 38,000  Level Salt Lake Center
10:05AM 38.5497 -110.7894 235° Southwest 468 539 38,000  Level Salt Lake Center
10:06AM 38.4769 -110.9181 234° Southwest 466 536 38,000  Level Salt Lake Center
10:07AM 38.4044 -111.0514 235° Southwest 465 535 38,000  Level Salt Lake Center
10:08AM 38.3289 -111.1836 234° Southwest 463 533 38,000  Level Salt Lake Center
10:09AM 38.2389 -111.3428 234° Southwest 462 532 38,000  Level Salt Lake Center
10:10AM 38.1642 -111.4772 235° Southwest 466 536 38,000  Level Salt Lake Center
10:11AM 38.0889 -111.6092 234° Southwest 465 535 38,000  Level Salt Lake Center
10:12AM 38.0111 -111.7425 234° Southwest 468 539 38,000  Level Salt Lake Center
10:13AM 37.9353 -111.8767 234° Southwest 469 540 38,000  Level Salt Lake Center
10:14AM 37.8586 -112.0092 234° Southwest 468 539 38,000  Level Salt Lake Center
10:15AM 37.7822 -112.1406 234° Southwest 465 535 38,000  Level Salt Lake Center
10:16AM 37.7067 -112.2728 234° Southwest 464 534 38,000  Level Salt Lake Center
10:17AM 37.6392 -112.4108 238° Southwest 462 532 38,000  Level Salt Lake Center
10:18AM 37.5622 -112.5806 240° Southwest 462 532 38,000  Level Salt Lake Center
10:20AM 37.4967 -112.7225 240° Southwest 462 532 38,000  Level Salt Lake Center
10:21AM 37.4297 -112.8661 240° Southwest 463 533 38,000  Level Salt Lake Center
10:22AM 37.3636 -113.0075 240° Southwest 463 533 38,000  Level Salt Lake Center
10:23AM 37.2997 -113.1464 240° Southwest 460 529 38,000  Level Salt Lake Center
10:24AM 37.2350 -113.2847 240° Southwest 459 528 38,000  Level Salt Lake Center
10:24AM 37.1828 -113.3936 239° Southwest 457 526 38,000  Level Los Angeles Center
10:25AM 37.0953 -113.5100 227° Southwest 458 527 38,000  Level Los Angeles Center
10:26AM 37.0058 -113.6236 225° Southwest 459 528 38,000  Level Los Angeles Center
10:28AM 36.8981 -113.7589 225° Southwest 458 527 38,000  Level Los Angeles Center
10:29AM 36.8058 -113.8711 224° Southwest 461 531 38,000  Level Los Angeles Center
10:30AM 36.7350 -113.9617 226° Southwest 458 527 38,000  Level Los Angeles Center
10:31AM 36.6072 -114.1192 225° Southwest 461 531 38,000  Level Los Angeles Center
10:32AM 36.5158 -114.2314 225° Southwest 461 531 38,000  Level Los Angeles Center
10:33AM 36.4250 -114.3408 224° Southwest 456 525 38,000  Level Los Angeles Center
10:34AM 36.3339 -114.4533 225° Southwest 460 529 38,000 -660 Level Los Angeles Center
10:35AM 36.2431 -114.5647 225° Southwest 459 528 36,700 -1,680 Descending Los Angeles Center
10:36AM 36.1539 -114.6717 224° Southwest 449 517 34,600 -2,040 Descending Los Angeles Center
10:37AM 36.0686 -114.7756 225° Southwest 434 499 32,600 -1,320 Descending Los Angeles Center
10:38AM 35.9831 -114.8778 224° Southwest 429 494 32,000 -300 Descending Los Angeles Center
10:39AM 35.8844 -115.0128 228° Southwest 439 505 32,000  Level Los Angeles Center
10:40AM 35.8033 -115.1242 228° Southwest 435 501 32,000  Level Los Angeles Center
10:41AM 35.7283 -115.2267 228° Southwest 404 465 32,000  Level Los Angeles Center
10:42AM 35.6569 -115.3219 227° Southwest 381 438 32,000  Level Los Angeles Center
10:43AM 35.5844 -115.4194 228° Southwest 382 440 32,000  Level Los Angeles Center
10:44AM 35.5119 -115.5167 228° Southwest 384 442 32,000  Level Los Angeles Center
10:45AM 35.4392 -115.6164 228° Southwest 387 445 32,000  Level Los Angeles Center
10:46AM 35.3625 -115.7192 228° Southwest 400 460 32,000  Level Los Angeles Center
10:47AM 35.2856 -115.8222 228° Southwest 409 471 32,000  Level Los Angeles Center
10:48AM 35.1914 -115.9456 227° Southwest 412 474 32,000  Level Los Angeles Center
10:49AM 35.1142 -116.0483 227° Southwest 411 473 32,000 -720 Level Los Angeles Center
10:50AM 35.0375 -116.1497 227° Southwest 409 471 30,600 -1,680 Descending Los Angeles Center
10:51AM 34.9619 -116.2472 227° Southwest 398 458 28,600 -2,040 Descending Los Angeles Center
10:52AM 34.8867 -116.3453 223° Southwest 396 456 26,400 -2,160 Descending Los Angeles Center
10:53AM 34.8637 -116.3589 223° Southwest  Level FlightAware Approximate
10:53AM 34.8039 -116.4606 229° Southwest 446 513 24,200  Level Los Angeles Center
10:54AM 34.7833 -116.6111 261° West 453 521 23,100 -1,080 Descending Los Angeles Center
10:55AM 34.7650 -116.7894 263° West 446 513 22,000 -540 Descending Los Angeles Center
10:57AM 34.7497 -116.9389 263° West 445 512 22,000  Level Los Angeles Center
10:58AM 34.7344 -117.0883 263° West 445 512 22,000 -780 Level Los Angeles Center
10:59AM 34.7194 -117.2311 263° West 430 495 20,400 -1,560 Descending Los Angeles Center
11:00AM 34.7053 -117.3658 263° West 408 470 18,900 -1,440 Descending Los Angeles Center
11:01AM 34.6906 -117.4994 262° West 399 459 17,500 -1,440 Descending Los Angeles Center
11:02AM 34.6772 -117.6297 263° West 391 450 16,000 -1,500 Descending Los Angeles Center
11:03AM 34.6631 -117.7592 262° West 388 447 14,500 -1,680 Descending Los Angeles Center
11:04AM 34.6481 -117.9069 263° West 370 426 12,600 -1,680 Descending Los Angeles Center
11:05AM 34.6356 -118.0247 263° West 354 407 11,100 -1,440 Descending Los Angeles Center
11:06AM 34.6108 -118.1286 254° West 307 353 9,700 -1,320 Descending Los Angeles Center
11:07AM 34.5800 -118.2183 247° West 295 339 8,400 -900 Descending Los Angeles Center
11:08AM 34.5511 -118.3042 248° West 277 319 7,900 -240 Descending Los Angeles Center
11:09AM 34.5161 -118.4086 248° West 278 320 8,000 -540 Climbing Los Angeles Center
11:11AM 34.4333 -118.5500 235° Southwest 276 318 6,300 -1,020 Descending Southern California TRACON
11:12AM 34.3833 -118.6167 228° Southwest 271 312 5,100 -600 Descending Southern California TRACON
11:13AM 34.3333 -118.6833 228° Southwest 268 308 5,100 -120 Level Southern California TRACON
11:14AM 34.2728 -118.7447 220° Southwest 275 316 4,900 -120 Descending Los Angeles Center
11:14AM 34.2622 -118.7661 239° Southwest 269 310 5,000 -900 Climbing Los Angeles Center
11:15AM 34.2281 -118.8142 229° Southwest 253 291 4,000 -1,200 Descending Los Angeles Center
11:15AM 34.2306 -118.8353 278° West 242 278 3,800 -840 Descending Los Angeles Center
11:16AM 34.2231 -118.8781 258° West 170 196 3,200 -540 Descending Los Angeles Center
11:16AM 34.2247 -118.8967 276° West 208 239 3,300 -600 Climbing Los Angeles Center
11:17AM 34.2203 -118.9336 262° West 163 188 2,700 -600 Descending Los Angeles Center
11:17AM 34.2194 -118.9572 268° West 189 217 2,700 -1,140 Level Los Angeles Center
11:18AM 34.2181 -118.9814 266° West 143 165 1,600 -600 Descending Los Angeles Center
11:18AM 34.2164 -119.0033 265° West 184 212 2,100 -540 Climbing Los Angeles Center
11:19AM 34.2136 -119.0294 263° West 135 155 1,100 -1,800 Descending Los Angeles Center
11:21AM 34.2000 -119.0833 259° West  Level FlightAware Approximate